CheckWX is a tool to help pilots better visualize weather data.  It is not intended as a substitute for an official pre-flight weather briefing.

10:26:50 UTC

SBIL TAF
Bahia - Jorge Amado Airport
Ilhéus, Brazil
TAF SBIL 190400Z 1906/1918 28005KT 9999 FEW020 TN25/1909Z TX31/1913Z BECMG 1910/1912 12005KT SCT020 FEW025TCU BECMG 1917/1918 13005KT RMK PAZ

Feb-19@
06:00 UTC

Feb-19 @ 06:00 UTC

Feb-19@
10:00 UTC

Feb-19 @ 10:00 UTC

TAF SBIL 190400Z 1906/1918 28005KT 9999 FEW020 TN25/1909Z TX31/1913Z

Expired

Wind
  • 280° at 5 KTS
Cloud Levels
  • Few at 2,000' AGL

Feb-19@
10:00 UTC

Feb-19 @ 10:00 UTC

Feb-19@
17:00 UTC

Feb-19 @ 17:00 UTC

BECMG 1910/1912 12005KT SCT020 FEW025TCU

Becoming

Becoming Conditions expected by Wed, Feb 19, 2020 @ 12:00 UTC

Wind
  • 120° at 5 KTS
Cloud Levels
  • Scattered at 2,000' AGL
  • Few at 2,500' AGL

Feb-19@
17:00 UTC

Feb-19 @ 17:00 UTC

Feb-19@
18:00 UTC

Feb-19 @ 18:00 UTC

BECMG 1917/1918 13005KT RMK PAZ

Becoming

Becoming Conditions expected by Wed, Feb 19, 2020 @ 18:00 UTC

Wind
  • 130° at 5 KTS
Cloud Levels
  • Scattered at 2,000' AGL
  • Few at 2,500' AGL